createdAt,value
2023-01-13T00:02:27.702Z,3.70
2023-01-13T00:05:01.233Z,3.70
2023-01-13T00:07:34.675Z,3.70
2023-01-13T00:10:11.823Z,3.50
2023-01-13T00:12:46.005Z,3.30
2023-01-13T00:15:19.781Z,3.30
2023-01-13T00:17:53.426Z,3.30
2023-01-13T00:20:26.837Z,3.30
2023-01-13T00:23:01.482Z,3.40
2023-01-13T00:25:35.399Z,3.20
2023-01-13T00:28:10.077Z,2.90
2023-01-13T00:30:43.520Z,2.80
2023-01-13T00:33:16.837Z,3.00
2023-01-13T00:36:13.538Z,3.00
2023-01-13T00:38:47.891Z,2.90
2023-01-13T00:41:23.436Z,2.40
2023-01-13T00:43:57.007Z,2.70
2023-01-13T00:46:30.441Z,3.40
2023-01-13T00:49:03.863Z,2.80
2023-01-13T00:51:37.821Z,2.90
2023-01-13T00:54:11.838Z,3.00
2023-01-13T00:56:45.637Z,2.20
2023-01-13T00:59:19.446Z,2.40
2023-01-13T01:01:53.217Z,2.80
2023-01-13T01:04:27.145Z,2.50
2023-01-13T01:07:00.615Z,2.40
2023-01-13T01:09:34.899Z,2.40
2023-01-13T01:12:09.391Z,2.40
2023-01-13T01:14:42.838Z,2.30
2023-01-13T01:17:16.329Z,2.30
2023-01-13T01:19:50.310Z,2.20
2023-01-13T01:22:23.755Z,2.60
2023-01-13T01:24:57.454Z,2.10
2023-01-13T01:27:31.009Z,1.90
2023-01-13T01:30:04.615Z,2.40
2023-01-13T01:32:39.175Z,2.20
2023-01-13T01:35:13.411Z,2.10
2023-01-13T01:37:46.851Z,2.30
2023-01-13T01:40:20.915Z,2.00
2023-01-13T01:43:11.869Z,2.00
2023-01-13T01:45:45.315Z,2.00
2023-01-13T01:48:18.807Z,1.70
2023-01-13T01:50:52.675Z,2.20
2023-01-13T01:53:29.702Z,2.00
2023-01-13T01:56:03.812Z,1.70
2023-01-13T01:58:45.833Z,1.90
2023-01-13T02:01:19.968Z,1.70
2023-01-13T02:04:00.819Z,1.90
2023-01-13T02:06:34.255Z,1.70
2023-01-13T02:09:08.274Z,1.70
2023-01-13T02:11:59.369Z,1.70
2023-01-13T02:14:34.621Z,1.70
2023-01-13T02:17:28.432Z,1.70
2023-01-13T02:21:52.512Z,1.60
2023-01-13T02:27:25.642Z,1.60
2023-01-13T02:31:00.037Z,1.70
2023-01-13T02:34:08.852Z,1.60
2023-01-13T02:37:08.417Z,1.60
2023-01-13T02:40:10.137Z,1.60
2023-01-13T02:43:28.788Z,1.70
2023-01-13T02:46:29.336Z,1.40
2023-01-13T02:49:35.621Z,1.40
2023-01-13T02:52:37.233Z,1.50
2023-01-13T02:55:35.556Z,1.60
2023-01-13T02:58:33.673Z,1.20
2023-01-13T03:01:27.754Z,1.60
2023-01-13T03:04:53.985Z,1.30
2023-01-13T03:08:06.171Z,1.20
2023-01-13T03:11:08.630Z,1.40
2023-01-13T03:14:09.559Z,1.10
2023-01-13T03:17:24.293Z,1.30
2023-01-13T03:20:25.690Z,1.40
2023-01-13T03:23:29.763Z,0.90
2023-01-13T03:26:33.260Z,1.40
2023-01-13T03:29:34.837Z,1.50
2023-01-13T03:32:34.421Z,1.20
2023-01-13T03:35:32.607Z,1.30
2023-01-13T03:38:32.756Z,1.30
2023-01-13T03:41:36.298Z,1.30
2023-01-13T03:44:35.485Z,1.40
2023-01-13T03:47:37.614Z,1.20
2023-01-13T03:50:37.307Z,1.60
2023-01-13T03:53:35.651Z,1.10
2023-01-13T03:56:37.250Z,1.20
2023-01-13T03:59:35.573Z,1.40
2023-01-13T04:02:43.474Z,1.20
2023-01-13T04:05:43.972Z,1.40
2023-01-13T04:08:41.612Z,1.20
2023-01-13T04:11:20.806Z,1.20
2023-01-13T04:14:17.480Z,1.20
2023-01-13T04:17:11.539Z,1.40
2023-01-13T04:20:05.799Z,1.00
2023-01-13T04:22:59.480Z,1.20
2023-01-13T04:25:57.682Z,1.10
2023-01-13T04:28:52.077Z,1.40
2023-01-13T04:31:46.030Z,1.10
2023-01-13T04:34:40.046Z,1.10
2023-01-13T04:37:34.397Z,1.30
2023-01-13T04:40:28.385Z,1.10
2023-01-13T04:43:22.051Z,1.20
2023-01-13T04:46:16.251Z,1.20
2023-01-13T04:49:10.370Z,1.30
2023-01-13T04:52:04.167Z,1.10
2023-01-13T04:54:58.939Z,0.90
2023-01-13T04:57:52.749Z,1.20
2023-01-13T05:00:46.772Z,1.10
2023-01-13T05:03:40.590Z,1.10
2023-01-13T05:06:35.228Z,1.20
2023-01-13T05:09:29.019Z,1.00
2023-01-13T05:12:40.204Z,1.20
2023-01-13T05:15:51.681Z,1.00
2023-01-13T05:18:45.976Z,1.10
2023-01-13T05:21:57.235Z,1.00
2023-01-13T05:25:08.769Z,1.10
2023-01-13T05:28:03.206Z,1.10
2023-01-13T05:30:58.113Z,1.10
2023-01-13T05:33:51.903Z,1.00
2023-01-13T05:36:45.649Z,1.10
2023-01-13T05:39:54.086Z,1.20
2023-01-13T05:43:05.786Z,1.20
2023-01-13T05:46:04.346Z,1.20
2023-01-13T05:48:59.896Z,1.30
2023-01-13T05:51:53.666Z,1.50
2023-01-13T05:54:47.330Z,1.20
2023-01-13T05:57:41.111Z,1.20
2023-01-13T06:00:34.874Z,1.20
2023-01-13T06:03:28.777Z,1.20
2023-01-13T06:06:22.592Z,1.40
2023-01-13T06:09:16.771Z,1.30
2023-01-13T06:12:13.618Z,1.10
2023-01-13T06:15:09.147Z,1.10
2023-01-13T06:18:05.214Z,1.60
2023-01-13T06:20:59.169Z,1.80
2023-01-13T06:23:52.972Z,1.40
2023-01-13T06:26:47.145Z,1.20
2023-01-13T06:29:41.430Z,1.30
2023-01-13T06:32:40.315Z,1.20
2023-01-13T06:35:38.638Z,1.20
2023-01-13T06:38:36.762Z,1.10
2023-01-13T06:41:55.325Z,1.40
2023-01-13T06:44:50.168Z,1.40
2023-01-13T06:47:44.151Z,1.20
2023-01-13T06:50:37.863Z,1.50
2023-01-13T06:53:31.783Z,1.50
2023-01-13T06:56:25.574Z,1.40
2023-01-13T06:59:09.922Z,1.30
2023-01-13T07:02:04.084Z,1.00
2023-01-13T07:04:57.966Z,1.20
2023-01-13T07:07:51.758Z,1.50
2023-01-13T07:10:45.719Z,1.40
2023-01-13T07:13:57.733Z,1.30
2023-01-13T07:16:52.941Z,1.70
2023-01-13T07:19:47.014Z,2.30
2023-01-13T07:22:40.621Z,2.40
2023-01-13T07:25:34.518Z,1.50
2023-01-13T07:28:31.328Z,1.40
2023-01-13T07:31:26.163Z,1.70
2023-01-13T07:34:20.073Z,1.90
2023-01-13T07:37:13.951Z,1.80
2023-01-13T07:40:10.261Z,2.00
2023-01-13T07:43:21.692Z,2.80
2023-01-13T07:46:15.577Z,2.70
2023-01-13T07:49:10.455Z,3.10
2023-01-13T07:52:04.497Z,2.50
2023-01-13T07:54:58.517Z,2.70
2023-01-13T07:57:53.693Z,2.90
2023-01-13T08:00:47.547Z,2.50
2023-01-13T08:03:41.718Z,2.60
2023-01-13T08:06:36.717Z,2.10
2023-01-13T08:09:30.508Z,2.10
2023-01-13T08:12:42.190Z,2.70
2023-01-13T08:15:48.762Z,2.50
2023-01-13T08:18:42.962Z,2.30
2023-01-13T08:21:36.804Z,2.70
2023-01-13T08:24:30.491Z,2.50
2023-01-13T08:27:24.105Z,2.40
2023-01-13T08:30:18.977Z,2.20
2023-01-13T08:33:15.062Z,2.60
2023-01-13T08:35:59.436Z,2.40
2023-01-13T08:38:53.172Z,3.30
2023-01-13T08:41:56.310Z,2.50
2023-01-13T08:44:47.736Z,2.60
2023-01-13T08:47:41.455Z,2.40
2023-01-13T08:50:35.284Z,2.00
2023-01-13T08:53:26.209Z,2.70
2023-01-13T08:56:20.068Z,2.40
2023-01-13T08:59:16.464Z,2.60
2023-01-13T09:01:53.149Z,3.60
2023-01-13T09:04:32.219Z,3.60
2023-01-13T09:07:26.214Z,3.50
2023-01-13T09:10:20.052Z,4.70
2023-01-13T09:13:17.939Z,4.00
2023-01-13T09:16:12.308Z,3.30
2023-01-13T09:19:06.115Z,4.00
2023-01-13T09:22:00.200Z,4.00
2023-01-13T09:24:54.252Z,4.40
2023-01-13T09:27:48.116Z,3.50
2023-01-13T09:30:42.442Z,3.70
2023-01-13T09:33:56.215Z,3.10
2023-01-13T09:36:50.062Z,3.40
2023-01-13T09:39:42.254Z,3.30
2023-01-13T09:43:06.140Z,3.50
2023-01-13T09:46:06.918Z,3.70
2023-01-13T09:49:03.743Z,3.50
2023-01-13T09:52:10.851Z,3.40
2023-01-13T09:55:12.576Z,3.40
2023-01-13T09:58:17.961Z,2.90
2023-01-13T10:01:25.217Z,3.30
2023-01-13T10:04:19.940Z,3.00
2023-01-13T10:07:17.034Z,3.00
2023-01-13T10:10:21.251Z,3.10
2023-01-13T10:13:24.813Z,3.40
2023-01-13T10:16:36.672Z,2.90
2023-01-13T10:19:37.344Z,2.80
2023-01-13T10:22:48.554Z,2.80
2023-01-13T10:25:59.045Z,2.70
2023-01-13T10:31:50.310Z,2.80
2023-01-13T10:34:56.689Z,2.90
2023-01-13T10:38:00.921Z,2.60
2023-01-13T10:44:04.476Z,2.60
2023-01-13T10:48:18.682Z,2.70
2023-01-13T10:51:24.358Z,2.50
2023-01-13T10:54:56.685Z,2.90
2023-01-13T10:57:46.282Z,2.60
2023-01-13T11:00:36.071Z,2.60
2023-01-13T11:03:27.263Z,2.30
2023-01-13T11:06:24.794Z,2.50
2023-01-13T11:09:21.772Z,2.40
2023-01-13T11:12:31.032Z,2.20
2023-01-13T11:15:29.690Z,2.10
2023-01-13T11:18:28.418Z,2.30
2023-01-13T11:21:25.943Z,2.20
2023-01-13T11:24:15.074Z,2.30
2023-01-13T11:26:59.450Z,2.10
2023-01-13T11:30:08.993Z,2.50
2023-01-13T11:33:19.997Z,2.20
2023-01-13T11:36:20.516Z,2.50
2023-01-13T11:39:22.286Z,2.40
2023-01-13T11:42:37.754Z,2.40
2023-01-13T11:45:36.992Z,2.00
2023-01-13T11:48:31.314Z,1.80
2023-01-13T11:51:33.204Z,2.40
2023-01-13T11:54:43.055Z,2.20
2023-01-13T11:58:15.630Z,2.90
2023-01-13T12:01:20.936Z,2.90
2023-01-13T12:04:27.003Z,2.00
2023-01-13T12:07:27.081Z,2.30
2023-01-13T12:10:47.063Z,2.70
2023-01-13T12:13:51.914Z,2.40
2023-01-13T12:16:48.817Z,2.80
2023-01-13T12:19:38.583Z,2.60
2023-01-13T12:22:33.418Z,2.30
2023-01-13T12:25:33.897Z,2.40
2023-01-13T12:28:30.437Z,2.30
2023-01-13T12:31:21.895Z,5.80
2023-01-13T12:34:41.795Z,7.10
2023-01-13T12:37:44.033Z,10.90
2023-01-13T12:40:55.766Z,15.10
2023-01-13T12:44:07.230Z,8.40
2023-01-13T12:46:59.465Z,7.00
2023-01-13T12:49:34.644Z,8.10
2023-01-13T12:52:24.461Z,7.20
2023-01-13T12:55:20.924Z,7.70
2023-01-13T12:58:18.188Z,6.70
2023-01-13T13:01:14.933Z,11.40
2023-01-13T13:04:11.964Z,8.50
2023-01-13T13:07:11.888Z,6.40
2023-01-13T13:10:05.972Z,7.30
2023-01-13T13:13:17.829Z,8.40
2023-01-13T13:16:46.851Z,8.90
2023-01-13T13:19:44.788Z,7.00
2023-01-13T13:22:50.692Z,8.30
2023-01-13T13:25:59.664Z,7.40
2023-01-13T13:29:06.043Z,7.40
2023-01-13T13:32:35.582Z,6.50
2023-01-13T13:35:42.575Z,6.80
2023-01-13T13:39:10.904Z,6.30
2023-01-13T13:42:31.547Z,7.20
2023-01-13T13:45:43.585Z,7.60
2023-01-13T13:48:33.789Z,7.70
2023-01-13T13:51:28.135Z,7.60
2023-01-13T13:54:21.702Z,6.40
2023-01-13T13:57:19.848Z,8.10
2023-01-13T13:59:57.407Z,6.60
2023-01-13T14:02:52.525Z,5.40
2023-01-13T14:05:57.655Z,6.40
2023-01-13T14:08:50.557Z,6.10
2023-01-13T14:11:42.322Z,7.30
2023-01-13T14:14:31.763Z,7.50
2023-01-13T14:17:25.841Z,7.60
2023-01-13T14:20:18.207Z,7.30
2023-01-13T14:23:15.449Z,8.30
2023-01-13T14:26:12.194Z,12.10
2023-01-13T14:29:03.107Z,14.60
2023-01-13T14:31:54.890Z,14.50
2023-01-13T14:34:44.545Z,10.70
2023-01-13T14:37:39.236Z,11.30
2023-01-13T14:40:46.137Z,8.70
2023-01-13T14:43:55.999Z,10.10
2023-01-13T14:46:47.231Z,8.40
2023-01-13T14:49:40.777Z,8.40
2023-01-13T14:52:36.031Z,8.20
2023-01-13T14:55:30.885Z,9.00
2023-01-13T14:58:28.271Z,9.40
2023-01-13T15:01:49.332Z,8.60
2023-01-13T15:04:39.001Z,8.60
2023-01-13T15:07:25.754Z,9.60
2023-01-13T15:10:17.899Z,8.20
2023-01-13T15:13:22.414Z,8.70
2023-01-13T15:16:22.177Z,8.80
2023-01-13T15:19:11.807Z,8.20
2023-01-13T15:22:02.382Z,8.00
2023-01-13T15:24:51.940Z,8.00
2023-01-13T15:27:33.281Z,8.90
2023-01-13T15:30:26.454Z,7.60
2023-01-13T15:33:00.180Z,7.70
2023-01-13T15:35:53.762Z,8.00
2023-01-13T15:38:43.230Z,7.90
2023-01-13T15:41:51.138Z,7.40
2023-01-13T15:44:49.210Z,7.80
2023-01-13T15:47:24.802Z,7.30
2023-01-13T15:50:17.578Z,7.40
2023-01-13T15:53:07.238Z,7.20
2023-01-13T15:55:59.272Z,7.30
2023-01-13T15:58:48.730Z,7.20
2023-01-13T16:01:38.442Z,7.30
2023-01-13T16:04:28.145Z,7.70
2023-01-13T16:07:19.822Z,6.60
2023-01-13T16:10:18.860Z,5.90
2023-01-13T16:13:08.578Z,6.80
2023-01-13T16:16:00.067Z,5.80
2023-01-13T16:18:50.784Z,6.40
2023-01-13T16:21:40.215Z,6.50
2023-01-13T16:24:09.657Z,6.40
2023-01-13T16:26:59.242Z,7.20
2023-01-13T16:29:52.198Z,6.40
2023-01-13T16:32:21.702Z,6.80
2023-01-13T16:35:11.578Z,6.30
2023-01-13T16:38:01.170Z,7.70
2023-01-13T16:40:51.588Z,6.20
2023-01-13T16:46:26.386Z,6.50
2023-01-13T16:49:20.609Z,6.70
2023-01-13T16:52:14.411Z,6.10
2023-01-13T16:55:10.038Z,6.20
2023-01-13T16:58:02.395Z,6.40
2023-01-13T17:00:54.758Z,6.00
2023-01-13T17:03:51.365Z,6.70
2023-01-13T17:06:53.143Z,5.80
2023-01-13T17:09:48.899Z,5.80
2023-01-13T17:12:43.231Z,5.70
2023-01-13T17:15:37.838Z,5.70
2023-01-13T17:18:32.520Z,5.20
2023-01-13T17:21:26.719Z,6.00
2023-01-13T17:24:20.893Z,5.80
2023-01-13T17:27:17.355Z,5.30
2023-01-13T17:30:15.162Z,5.70
2023-01-13T17:33:09.368Z,5.00
2023-01-13T17:36:08.326Z,5.80
2023-01-13T17:39:02.364Z,5.70
2023-01-13T17:42:32.175Z,5.40
2023-01-13T17:48:10.460Z,5.50
2023-01-13T17:51:06.630Z,5.40
2023-01-13T17:56:13.863Z,5.60
2023-01-13T18:01:50.508Z,5.20
2023-01-13T18:04:45.868Z,5.40
2023-01-13T18:07:39.596Z,5.20
2023-01-13T18:10:33.495Z,4.80
2023-01-13T18:13:27.725Z,5.40
2023-01-13T18:16:22.613Z,4.70
2023-01-13T18:19:36.377Z,4.80
2023-01-13T18:22:47.662Z,5.30
2023-01-13T18:26:01.098Z,5.10
2023-01-13T18:28:54.916Z,4.90
2023-01-13T18:31:48.665Z,4.70
2023-01-13T18:34:43.779Z,4.60
2023-01-13T18:37:40.437Z,5.10
2023-01-13T18:40:34.115Z,4.90
2023-01-13T18:43:27.903Z,4.50
2023-01-13T18:46:22.787Z,4.70
2023-01-13T18:49:16.642Z,4.70
2023-01-13T18:52:10.619Z,4.60
2023-01-13T18:55:04.694Z,5.00
2023-01-13T18:57:59.075Z,5.00
2023-01-13T19:01:01.059Z,4.80
2023-01-13T19:04:00.122Z,4.50
2023-01-13T19:07:00.457Z,4.30
2023-01-13T19:09:56.395Z,4.40
2023-01-13T19:12:50.087Z,4.40
2023-01-13T19:15:43.844Z,4.30
2023-01-13T19:18:39.279Z,4.50
2023-01-13T19:21:33.244Z,4.50
2023-01-13T19:24:27.186Z,4.90
2023-01-13T19:27:22.825Z,4.40
2023-01-13T19:30:18.469Z,4.90
2023-01-13T19:33:12.284Z,5.20
2023-01-13T19:36:07.647Z,4.40
2023-01-13T19:39:01.506Z,4.40
2023-01-13T19:42:13.085Z,4.70
2023-01-13T19:45:13.427Z,4.60
2023-01-13T19:48:08.560Z,4.90
2023-01-13T19:51:05.907Z,5.20
2023-01-13T19:54:00.682Z,5.50
2023-01-13T19:56:54.601Z,5.00
2023-01-13T19:59:48.311Z,4.60
2023-01-13T20:02:48.016Z,4.60
2023-01-13T20:05:43.104Z,4.60
2023-01-13T20:08:36.766Z,5.20
2023-01-13T20:11:33.541Z,6.00
2023-01-13T20:14:27.944Z,4.60
2023-01-13T20:17:23.187Z,5.20
2023-01-13T20:20:18.521Z,4.70
2023-01-13T20:23:13.203Z,4.70
2023-01-13T20:26:10.921Z,4.20
2023-01-13T20:29:05.015Z,5.10
2023-01-13T20:31:59.681Z,4.80
2023-01-13T20:34:38.940Z,4.50
2023-01-13T20:37:32.893Z,4.50
2023-01-13T20:40:26.772Z,4.60
2023-01-13T20:43:20.462Z,4.80
2023-01-13T20:46:14.316Z,4.20
2023-01-13T20:49:10.556Z,4.20
2023-01-13T20:52:09.289Z,4.70
2023-01-13T20:55:03.116Z,4.50
2023-01-13T20:57:56.849Z,4.70
2023-01-13T21:00:51.019Z,5.20
2023-01-13T21:03:45.058Z,4.90
2023-01-13T21:06:39.044Z,4.90
2023-01-13T21:09:33.256Z,4.60
2023-01-13T21:12:44.503Z,5.00
2023-01-13T21:15:38.482Z,8.90
2023-01-13T21:19:06.291Z,8.20
2023-01-13T21:22:00.153Z,5.60
2023-01-13T21:24:53.997Z,6.40
2023-01-13T21:27:47.623Z,8.20
2023-01-13T21:30:41.397Z,9.30
2023-01-13T21:33:35.425Z,8.20
2023-01-13T21:36:30.695Z,9.10
2023-01-13T21:39:24.580Z,8.40
2023-01-13T21:42:36.477Z,8.70
2023-01-13T21:45:49.614Z,8.20
2023-01-13T21:48:43.729Z,7.60
2023-01-13T21:51:38.021Z,7.60
2023-01-13T21:54:31.997Z,7.20
2023-01-13T21:57:27.329Z,6.60
2023-01-13T22:00:24.852Z,6.70
2023-01-13T22:03:19.530Z,6.80
2023-01-13T22:06:13.291Z,6.40
2023-01-13T22:09:07.441Z,7.30
2023-01-13T22:12:01.509Z,6.50
2023-01-13T22:14:55.637Z,6.60
2023-01-13T22:17:53.297Z,6.10
2023-01-13T22:20:47.230Z,6.00
2023-01-13T22:23:40.991Z,6.60
2023-01-13T22:26:34.954Z,6.10
2023-01-13T22:29:28.755Z,5.80
2023-01-13T22:32:23.650Z,6.30
2023-01-13T22:35:19.132Z,5.80
2023-01-13T22:38:13.095Z,5.60
2023-01-13T22:41:09.877Z,5.70
2023-01-13T22:44:03.709Z,5.70
2023-01-13T22:46:57.430Z,5.40
2023-01-13T22:49:51.324Z,5.00
2023-01-13T22:52:45.052Z,5.30
2023-01-13T22:55:38.715Z,5.20
2023-01-13T22:58:32.707Z,5.40
2023-01-13T23:01:29.733Z,5.40
2023-01-13T23:04:23.588Z,4.90
2023-01-13T23:07:17.565Z,5.20
2023-01-13T23:10:13.882Z,4.90
2023-01-13T23:13:07.665Z,5.40
2023-01-13T23:16:05.933Z,5.50
2023-01-13T23:19:02.365Z,5.90
2023-01-13T23:21:56.058Z,4.90
2023-01-13T23:24:49.932Z,5.30
2023-01-13T23:27:43.663Z,4.70
2023-01-13T23:30:41.727Z,4.60
2023-01-13T23:33:35.594Z,4.70
2023-01-13T23:36:31.262Z,4.50
2023-01-13T23:39:25.342Z,5.20
2023-01-13T23:42:19.082Z,4.70
2023-01-13T23:45:15.283Z,4.80
2023-01-13T23:48:09.590Z,4.10
2023-01-13T23:51:05.470Z,4.60
2023-01-13T23:53:59.980Z,4.60
2023-01-13T23:56:54.951Z,4.70
2023-01-13T23:59:48.854Z,4.10
